Time;durP1;ratioP1;P1;durP2;ratioP2;P2;SDS_P1;SDS_P2;PMS_P1;PMS_P2;Temp;Humidity;BMP_temperature;BMP_pressure;BME280_temperature;BME280_humidity;BME280_pressure;Samples;Min_cycle;Max_cycle;Signal;HPM_P1;HPM_P2
2022/06/07 00:00:26;;;;;;;26.67;25.77;;;23.50;82.40;;;;;;5085503;28;20430;-68
2022/06/07 00:02:53;;;;;;;25.70;24.80;;;23.50;83.20;;;;;;5091237;28;20444;-68
2022/06/07 00:05:20;;;;;;;26.93;26.13;;;23.50;82.50;;;;;;5079721;28;20526;-68
2022/06/07 00:07:47;;;;;;;28.50;27.60;;;23.50;83.30;;;;;;5070956;28;20435;-68
2022/06/07 00:10:13;;;;;;;28.33;27.43;;;23.50;82.70;;;;;;5070675;28;20574;-68
2022/06/07 00:12:42;;;;;;;29.10;28.20;;;23.50;83.50;;;;;;5090091;28;20446;-68
2022/06/07 00:15:10;;;;;;;27.33;26.53;;;23.50;82.60;;;;;;5090980;28;20534;-68
2022/06/07 00:17:37;;;;;;;26.27;25.47;;;23.50;82.80;;;;;;5090851;28;20477;-68
2022/06/07 00:20:06;;;;;;;26.80;26.00;;;23.50;82.90;;;;;;5090771;28;20470;-68
2022/06/07 00:22:33;;;;;;;26.30;25.50;;;23.50;83.00;;;;;;5090994;28;20446;-68
2022/06/07 00:25:00;;;;;;;25.87;24.97;;;23.50;83.00;;;;;;5074095;28;20867;-68
2022/06/07 00:27:27;;;;;;;26.13;25.23;;;23.50;83.00;;;;;;5074341;28;20459;-68
2022/06/07 00:29:55;;;;;;;27.37;26.47;;;23.50;83.00;;;;;;5074009;28;20510;-69
2022/06/07 00:32:23;;;;;;;26.67;25.77;;;23.40;83.70;;;;;;5074151;28;20526;-69
2022/06/07 00:34:50;;;;;;;26.77;25.97;;;23.50;83.10;;;;;;5074398;28;21001;-69
2022/06/07 00:37:17;;;;;;;27.70;26.80;;;23.40;83.00;;;;;;5087277;28;21000;-68
2022/06/07 00:39:44;;;;;;;27.83;26.73;;;23.40;83.00;;;;;;5094219;28;20542;-68
2022/06/07 00:42:11;;;;;;;27.30;26.40;;;23.40;83.80;;;;;;5094173;28;20442;-68
2022/06/07 00:44:40;;;;;;;26.33;25.53;;;23.40;83.10;;;;;;5094172;28;20525;-68
2022/06/07 00:47:11;;;;;;;25.97;25.17;;;23.40;83.10;;;;;;5090591;28;20467;-68
2022/06/07 00:49:45;;;;;;;28.00;27.10;;;23.40;83.20;;;;;;5073710;28;20486;-68
2022/06/07 00:52:12;;;;;;;29.93;28.93;;;23.40;83.30;;;;;;5073857;28;20482;-68
2022/06/07 00:54:39;;;;;;;26.87;26.07;;;23.40;83.40;;;;;;5073707;28;20934;-68
2022/06/07 00:57:07;;;;;;;26.40;25.60;;;23.40;83.40;;;;;;5073623;28;20499;-68
2022/06/07 00:59:34;;;;;;;26.10;25.20;;;23.40;83.40;;;;;;5082977;28;20483;-69
2022/06/07 01:02:01;;;;;;;26.23;25.33;;;23.40;83.50;;;;;;5093859;28;20513;-68
2022/06/07 01:04:29;;;;;;;25.13;24.33;;;23.30;83.50;;;;;;5078857;28;20522;-68
2022/06/07 01:12:26;;;;;;;29.70;28.80;;;23.30;83.60;;;;;;5088486;28;20526;-68
2022/06/07 01:14:53;;;;;;;28.27;27.30;;;23.40;83.70;;;;;;5093469;28;20477;-68
2022/06/07 01:17:20;;;;;;;26.73;25.83;;;23.30;83.60;;;;;;5093404;28;20536;-68
2022/06/07 01:19:49;;;;;;;27.87;27.00;;;23.30;83.60;;;;;;5093406;28;20521;-69
2022/06/07 01:22:18;;;;;;;28.80;27.90;;;23.30;83.70;;;;;;5093486;28;20613;-68
2022/06/07 01:24:45;;;;;;;29.30;28.20;;;23.30;83.70;;;;;;5075252;28;20534;-68
2022/06/07 01:27:12;;;;;;;29.23;28.23;;;23.30;84.30;;;;;;5073079;28;20498;-68
2022/06/07 01:29:42;;;;;;;27.47;26.57;;;23.30;84.40;;;;;;5072899;28;20566;-69
2022/06/07 01:32:10;;;;;;;28.90;28.00;;;23.30;83.80;;;;;;5073023;28;20448;-69
2022/06/07 01:34:42;;;;;;;27.40;26.57;;;23.30;83.80;;;;;;5090506;28;20489;-69
2022/06/07 01:37:11;;;;;;;27.10;26.30;;;23.30;83.90;;;;;;5093282;28;20874;-68
2022/06/07 01:42:23;;;;;;;29.00;28.10;;;23.30;83.80;;;;;;5091332;28;20418;-68
2022/06/07 01:44:51;;;;;;;27.83;26.93;;;23.20;84.50;;;;;;5072789;28;20534;-68
2022/06/07 01:47:20;;;;;;;29.30;28.40;;;23.20;83.80;;;;;;5072658;28;20486;-68
2022/06/07 01:49:47;;;;;;;29.70;28.80;;;23.20;83.80;;;;;;5072481;28;20489;-68
2022/06/07 01:52:16;;;;;;;28.60;27.70;;;23.20;84.50;;;;;;5072619;28;20534;-68
2022/06/07 01:54:45;;;;;;;28.80;27.90;;;23.20;83.70;;;;;;5072500;28;20470;-68
2022/06/07 01:57:12;;;;;;;28.30;27.40;;;23.20;84.50;;;;;;5072488;28;20541;-68
2022/06/07 01:59:39;;;;;;;29.83;28.90;;;23.20;83.70;;;;;;5072322;28;20530;-68
2022/06/07 02:02:06;;;;;;;27.23;26.30;;;23.20;83.80;;;;;;5073389;28;20471;-68
2022/06/07 02:04:35;;;;;;;29.10;28.20;;;23.20;83.70;;;;;;5087092;28;20527;-68
2022/06/07 02:07:03;;;;;;;28.10;27.20;;;23.20;83.70;;;;;;5072203;28;20550;-69
2022/06/07 02:09:30;;;;;;;27.93;26.90;;;23.20;83.70;;;;;;5072144;28;20536;-68
2022/06/07 02:11:59;;;;;;;30.10;29.20;;;23.20;83.70;;;;;;5072161;28;21026;-69
2022/06/07 02:14:26;;;;;;;29.70;28.80;;;23.20;83.70;;;;;;5072149;28;20439;-68
2022/06/07 02:16:53;;;;;;;30.53;29.63;;;23.20;83.60;;;;;;5071860;28;20483;-68
2022/06/07 02:19:20;;;;;;;28.80;27.90;;;23.20;83.60;;;;;;5072198;28;20526;-69
2022/06/07 02:21:47;;;;;;;29.10;28.20;;;23.20;83.60;;;;;;5071883;28;20453;-68
2022/06/07 02:24:14;;;;;;;28.63;27.73;;;23.20;84.30;;;;;;5071829;28;20538;-68
2022/06/07 02:26:44;;;;;;;30.20;29.20;;;23.10;83.30;;;;;;5071901;28;20467;-68
2022/06/07 02:29:16;;;;;;;29.13;28.13;;;23.10;83.40;;;;;;5071893;28;20573;-68
2022/06/07 02:31:48;;;;;;;28.80;27.90;;;23.10;83.30;;;;;;5071584;28;20471;-68
2022/06/07 02:34:18;;;;;;;29.13;28.13;;;23.10;83.30;;;;;;5071890;28;20543;-68
2022/06/07 02:36:48;;;;;;;29.27;28.37;;;23.10;83.20;;;;;;5071777;28;20471;-68
2022/06/07 02:39:15;;;;;;;29.80;28.80;;;23.10;83.30;;;;;;5071773;28;20530;-68
2022/06/07 02:41:43;;;;;;;28.90;27.80;;;23.10;83.20;;;;;;5071526;28;20934;-68
2022/06/07 02:44:10;;;;;;;28.43;27.53;;;23.10;83.10;;;;;;5091520;28;20485;-68
2022/06/07 02:46:38;;;;;;;29.90;28.90;;;23.10;83.20;;;;;;5091555;28;20550;-68
2022/06/07 02:49:05;;;;;;;29.23;28.27;;;23.10;83.20;;;;;;5091944;28;20520;-69
2022/06/07 02:51:32;;;;;;;31.13;29.73;;;23.10;83.10;;;;;;5090996;28;20479;-68
2022/06/07 02:53:59;;;;;;;31.03;29.93;;;23.10;83.00;;;;;;5071729;28;20526;-68
2022/06/07 02:56:25;;;;;;;33.53;32.43;;;23.10;83.10;;;;;;5071558;28;20547;-68
2022/06/07 02:58:52;;;;;;;32.10;31.10;;;23.10;83.10;;;;;;5071585;28;20469;-69
2022/06/07 03:01:19;;;;;;;30.03;29.13;;;23.10;83.00;;;;;;5071559;28;20847;-69
2022/06/07 03:03:47;;;;;;;29.00;28.10;;;23.10;83.00;;;;;;5086956;28;20533;-68
2022/06/07 03:06:14;;;;;;;30.23;29.27;;;23.00;83.60;;;;;;5071319;28;20463;-68
2022/06/07 03:08:41;;;;;;;30.10;29.10;;;23.00;82.80;;;;;;5071570;28;20530;-68
2022/06/07 03:11:09;;;;;;;30.60;29.60;;;23.00;82.70;;;;;;5071129;28;20573;-69
2022/06/07 03:13:36;;;;;;;28.90;27.80;;;23.00;82.70;;;;;;5072016;28;20447;-68
2022/06/07 03:16:03;;;;;;;28.90;28.00;;;23.00;82.70;;;;;;5091875;28;20566;-69
2022/06/07 03:18:29;;;;;;;31.00;30.00;;;23.00;82.80;;;;;;5086565;28;20530;-68
2022/06/07 03:20:58;;;;;;;29.93;28.83;;;23.00;82.70;;;;;;5071199;28;20436;-68
2022/06/07 03:23:25;;;;;;;28.93;28.03;;;23.00;82.70;;;;;;5071247;28;20475;-68
2022/06/07 03:25:51;;;;;;;27.70;26.80;;;23.00;82.50;;;;;;5075253;28;20533;-68
2022/06/07 03:28:18;;;;;;;28.53;27.57;;;23.00;83.30;;;;;;5091653;28;20533;-68
2022/06/07 03:30:45;;;;;;;28.13;27.23;;;23.00;82.30;;;;;;5091262;28;20569;-68
2022/06/07 03:33:12;;;;;;;29.07;27.87;;;23.00;82.40;;;;;;5091394;28;21036;-68
2022/06/07 03:35:40;;;;;;;31.47;30.37;;;23.00;82.50;;;;;;5091347;28;20464;-68
2022/06/07 03:38:08;;;;;;;30.67;29.67;;;23.00;82.50;;;;;;5085666;28;20444;-69
2022/06/07 03:40:45;;;;;;;31.63;30.63;;;23.00;82.50;;;;;;5071004;28;20467;-68
2022/06/07 03:43:12;;;;;;;31.00;29.90;;;23.00;82.50;;;;;;5071213;28;20869;-68
2022/06/07 03:45:40;;;;;;;30.27;29.27;;;22.90;83.00;;;;;;5071107;28;20550;-68
2022/06/07 03:48:08;;;;;;;29.40;28.30;;;22.90;82.30;;;;;;5071072;28;20530;-68
2022/06/07 03:50:36;;;;;;;30.50;29.50;;;23.00;82.30;;;;;;5077125;28;20477;-68
2022/06/07 03:53:03;;;;;;;30.37;29.37;;;22.90;82.20;;;;;;5091205;28;20446;-68
2022/06/07 03:55:32;;;;;;;30.30;29.30;;;23.00;82.30;;;;;;5091096;28;20465;-68
2022/06/07 03:57:59;;;;;;;33.00;31.90;;;22.90;82.20;;;;;;5091448;28;20818;-68
2022/06/07 04:00:26;;;;;;;32.70;31.50;;;22.90;83.00;;;;;;5094851;28;20461;-68
2022/06/07 04:02:53;;;;;;;32.10;31.00;;;22.90;82.80;;;;;;5086810;28;20878;-68
2022/06/07 04:05:20;;;;;;;32.07;30.97;;;22.90;83.00;;;;;;5074758;28;20969;-68
2022/06/07 04:10:32;;;;;;;30.93;29.93;;;22.90;82.70;;;;;;5074466;28;20486;-68
2022/06/07 04:12:59;;;;;;;31.90;30.80;;;22.90;82.90;;;;;;5074615;28;20530;-68
2022/06/07 04:15:26;;;;;;;33.23;31.83;;;22.90;83.60;;;;;;5074191;28;21025;-68
2022/06/07 04:17:53;;;;;;;33.10;32.00;;;22.90;83.70;;;;;;5085179;28;20438;-68
2022/06/07 04:20:21;;;;;;;33.23;32.03;;;22.90;83.00;;;;;;5094506;28;20442;-68
2022/06/07 04:22:48;;;;;;;33.47;32.37;;;22.90;83.00;;;;;;5094575;28;20446;-68
2022/06/07 04:25:15;;;;;;;32.90;31.80;;;22.90;82.90;;;;;;5091667;28;20700;-68
2022/06/07 04:27:43;;;;;;;34.10;33.00;;;22.90;82.90;;;;;;5074191;28;20459;-68
2022/06/07 04:30:11;;;;;;;32.13;31.03;;;22.90;82.70;;;;;;5074028;28;20479;-68
2022/06/07 04:32:39;;;;;;;32.90;31.80;;;22.90;82.40;;;;;;5074240;28;20451;-68
2022/06/07 04:35:07;;;;;;;34.37;32.67;;;22.90;82.50;;;;;;5075491;28;20539;-68
2022/06/07 04:37:34;;;;;;;35.20;33.60;;;23.00;83.50;;;;;;5094262;28;20541;-68
2022/06/07 04:40:02;;;;;;;39.73;37.23;;;23.00;86.40;;;;;;5094125;28;20945;-68
2022/06/07 04:42:29;;;;;;;36.50;34.50;;;23.00;89.10;;;;;;5094195;28;20446;-68
2022/06/07 04:44:57;;;;;;;34.90;33.00;;;23.00;90.80;;;;;;5094220;28;20529;-68
2022/06/07 04:47:24;;;;;;;34.93;32.87;;;23.10;93.70;;;;;;5087989;28;20462;-69
2022/06/07 04:49:51;;;;;;;34.47;32.63;;;23.10;93.00;;;;;;5073619;28;21071;-69
2022/06/07 04:52:18;;;;;;;33.63;31.50;;;23.10;93.10;;;;;;5073756;28;20530;-69
2022/06/07 04:54:44;;;;;;;34.67;32.67;;;23.20;94.30;;;;;;5073693;28;20530;-69
2022/06/07 04:57:11;;;;;;;36.27;34.23;;;23.10;95.20;;;;;;5073871;28;20551;-68
2022/06/07 04:59:38;;;;;;;36.53;34.53;;;23.10;94.70;;;;;;5073575;28;20527;-68
2022/06/07 05:02:06;;;;;;;36.00;34.20;;;23.10;94.90;;;;;;5073566;28;20558;-68
2022/06/07 05:04:33;;;;;;;37.57;35.47;;;23.10;94.70;;;;;;5073661;28;20535;-69
2022/06/07 05:07:00;;;;;;;34.70;32.70;;;23.10;95.00;;;;;;5073504;28;20542;-69
2022/06/07 05:09:27;;;;;;;38.47;36.20;;;23.10;94.60;;;;;;5072805;28;20478;-69
2022/06/07 05:11:54;;;;;;;35.40;33.50;;;23.10;94.40;;;;;;5073402;28;20482;-68
2022/06/07 05:14:23;;;;;;;37.90;35.83;;;23.10;94.20;;;;;;5073415;28;20451;-69
2022/06/07 05:16:51;;;;;;;37.83;35.70;;;23.10;93.90;;;;;;5073197;28;20573;-68
2022/06/07 05:19:20;;;;;;;37.23;35.33;;;23.10;93.70;;;;;;5073360;28;20529;-69
2022/06/07 05:21:47;;;;;;;35.33;33.63;;;23.10;93.50;;;;;;5073102;28;20862;-69
2022/06/07 05:24:14;;;;;;;37.50;35.50;;;23.10;93.60;;;;;;5073162;28;20477;-68
2022/06/07 05:26:45;;;;;;;35.30;33.57;;;23.10;93.20;;;;;;5073158;28;20565;-68
2022/06/07 05:29:16;;;;;;;35.87;34.20;;;23.10;92.90;;;;;;5073080;28;20443;-69
2022/06/07 05:31:43;;;;;;;38.60;36.60;;;23.10;93.10;;;;;;5072854;28;20522;-68
2022/06/07 05:34:10;;;;;;;34.70;33.10;;;23.10;92.60;;;;;;5073084;28;20863;-68
2022/06/07 05:36:39;;;;;;;35.63;33.67;;;23.10;92.50;;;;;;5072960;28;20554;-69
2022/06/07 05:39:07;;;;;;;35.60;34.00;;;23.10;92.30;;;;;;5072845;28;20453;-68
2022/06/07 05:41:34;;;;;;;37.90;35.80;;;23.10;92.20;;;;;;5072702;28;20479;-69
2022/06/07 05:44:02;;;;;;;37.13;35.27;;;23.10;92.00;;;;;;5072819;28;20534;-69
2022/06/07 05:46:29;;;;;;;35.83;34.33;;;23.10;91.90;;;;;;5072772;28;20459;-69
2022/06/07 05:48:55;;;;;;;34.43;32.43;;;23.10;91.70;;;;;;5072705;28;20813;-69
2022/06/07 05:51:22;;;;;;;36.43;34.73;;;23.10;91.70;;;;;;5072375;28;20841;-69
2022/06/07 05:53:54;;;;;;;34.33;32.80;;;23.10;91.50;;;;;;5072523;28;20530;-70
2022/06/07 05:56:21;;;;;;;33.70;32.00;;;23.10;91.30;;;;;;5072575;28;20577;-68
2022/06/07 05:58:49;;;;;;;36.57;34.60;;;23.10;91.60;;;;;;5072423;28;20531;-69
2022/06/07 06:01:16;;;;;;;36.50;34.50;;;23.10;91.10;;;;;;5072211;28;20445;-69
2022/06/07 06:03:44;;;;;;;36.00;34.60;;;23.10;91.00;;;;;;5072509;28;20443;-69
2022/06/07 06:06:12;;;;;;;38.13;36.07;;;23.10;90.90;;;;;;5072301;28;20970;-68
2022/06/07 06:11:27;;;;;;;33.13;31.73;;;23.10;90.70;;;;;;5072043;28;20482;-68
2022/06/07 06:13:53;;;;;;;35.70;34.00;;;23.10;90.60;;;;;;5072316;28;20871;-68
2022/06/07 06:16:22;;;;;;;35.33;33.93;;;23.10;90.50;;;;;;5071992;28;20554;-69
2022/06/07 06:18:51;;;;;;;33.50;32.00;;;23.10;90.50;;;;;;5072201;28;20942;-68
2022/06/07 06:21:20;;;;;;;35.90;34.40;;;23.10;90.40;;;;;;5071127;28;20527;-70
2022/06/07 06:23:47;;;;;;;36.60;34.90;;;23.10;90.70;;;;;;5072025;28;20530;-69
2022/06/07 06:26:16;;;;;;;35.33;33.93;;;23.10;90.30;;;;;;5071951;28;20570;-69
2022/06/07 06:28:44;;;;;;;36.33;34.83;;;23.10;90.50;;;;;;5072076;28;20994;-68
2022/06/07 06:31:13;;;;;;;34.67;33.27;;;23.10;90.50;;;;;;5071613;28;21023;-68
2022/06/07 06:33:41;;;;;;;37.20;35.70;;;23.10;90.10;;;;;;5071973;28;20536;-69
2022/06/07 06:36:09;;;;;;;35.67;34.17;;;23.10;90.00;;;;;;5071776;28;20499;-68
2022/06/07 06:38:37;;;;;;;38.53;37.00;;;23.10;89.80;;;;;;5071922;28;20806;-68
2022/06/07 06:41:09;;;;;;;35.57;34.10;;;23.10;89.60;;;;;;5071683;28;20523;-68
2022/06/07 06:43:36;;;;;;;36.50;35.10;;;23.10;89.60;;;;;;5071804;28;20479;-68
2022/06/07 06:46:08;;;;;;;36.53;34.73;;;23.00;89.30;;;;;;5071716;28;20498;-69
2022/06/07 06:48:36;;;;;;;35.53;33.53;;;23.00;89.20;;;;;;5071709;28;20454;-69
2022/06/07 06:51:04;;;;;;;32.80;31.40;;;23.00;89.10;;;;;;5071388;28;20637;-68
2022/06/07 06:53:32;;;;;;;33.93;32.33;;;23.00;88.90;;;;;;5071612;28;20501;-69
2022/06/07 06:55:59;;;;;;;34.97;33.50;;;23.00;88.80;;;;;;5071600;28;20459;-69
2022/06/07 06:58:26;;;;;;;34.17;32.67;;;23.00;88.70;;;;;;5071529;28;20471;-68
2022/06/07 07:01:03;;;;;;;31.80;30.60;;;23.00;88.50;;;;;;5071390;28;20749;-68
2022/06/07 07:03:33;;;;;;;33.87;32.37;;;23.00;88.40;;;;;;5071536;28;20526;-69
2022/06/07 07:06:01;;;;;;;34.73;33.20;;;23.00;88.30;;;;;;5071512;28;20467;-68
2022/06/07 07:08:29;;;;;;;33.97;32.67;;;23.00;88.20;;;;;;5071421;28;20526;-69
2022/06/07 07:11:05;;;;;;;35.07;33.73;;;23.00;88.10;;;;;;5071176;28;20566;-69
2022/06/07 07:13:32;;;;;;;33.13;31.73;;;23.00;88.00;;;;;;5071623;28;20445;-69
2022/06/07 07:15:59;;;;;;;33.73;32.43;;;23.00;87.80;;;;;;5071310;28;20514;-69
2022/06/07 07:18:26;;;;;;;34.27;32.83;;;23.00;87.70;;;;;;5071406;28;20447;-69
2022/06/07 07:20:55;;;;;;;34.07;32.57;;;23.00;87.70;;;;;;5071140;28;20475;-69
2022/06/07 07:23:22;;;;;;;34.40;33.10;;;23.00;87.50;;;;;;5071294;28;20462;-68
2022/06/07 07:25:49;;;;;;;34.30;32.90;;;23.00;87.50;;;;;;5071296;28;20467;-69
2022/06/07 07:28:17;;;;;;;34.30;32.80;;;23.00;87.40;;;;;;5071322;28;20464;-68
2022/06/07 07:30:44;;;;;;;35.47;34.00;;;23.00;87.40;;;;;;5071024;28;20969;-68
2022/06/07 07:33:11;;;;;;;37.23;35.53;;;23.00;88.10;;;;;;5073498;28;20973;-69
2022/06/07 07:35:37;;;;;;;35.47;34.07;;;23.00;87.30;;;;;;5075169;28;20525;-68
2022/06/07 07:38:06;;;;;;;34.30;33.00;;;23.00;87.20;;;;;;5075387;28;20526;-69
2022/06/07 07:40:33;;;;;;;35.13;33.93;;;23.00;87.10;;;;;;5074955;28;20447;-69
2022/06/07 07:43:00;;;;;;;34.40;33.00;;;23.00;87.10;;;;;;5075150;28;20797;-69
2022/06/07 07:45:27;;;;;;;33.67;32.37;;;23.00;87.00;;;;;;5075112;28;20445;-69
2022/06/07 07:47:54;;;;;;;35.57;33.97;;;23.00;86.90;;;;;;5075047;28;20597;-68
2022/06/07 07:50:21;;;;;;;35.30;33.97;;;23.00;87.60;;;;;;5074724;28;20446;-69
2022/06/07 07:52:48;;;;;;;33.97;32.50;;;23.00;86.70;;;;;;5074989;28;20541;-69
2022/06/07 07:55:17;;;;;;;34.33;33.13;;;23.00;87.40;;;;;;5074908;28;20466;-69
2022/06/07 07:57:43;;;;;;;34.57;33.27;;;23.00;86.60;;;;;;5074666;28;20582;-69
2022/06/07 08:00:11;;;;;;;32.70;31.40;;;23.00;86.50;;;;;;5074758;28;20478;-68
2022/06/07 08:02:38;;;;;;;33.40;32.10;;;23.00;86.60;;;;;;5074895;28;20518;-69
2022/06/07 08:05:06;;;;;;;32.97;31.60;;;23.00;86.40;;;;;;5074774;28;20534;-69
2022/06/07 08:07:33;;;;;;;33.33;31.63;;;23.00;86.30;;;;;;5074531;28;20463;-69
2022/06/07 08:10:01;;;;;;;33.80;32.50;;;23.00;86.20;;;;;;5074565;28;20451;-69
2022/06/07 08:12:29;;;;;;;35.70;34.30;;;23.00;86.20;;;;;;5074419;28;20533;-69
2022/06/07 08:14:56;;;;;;;35.40;34.03;;;23.00;86.20;;;;;;5074508;28;20442;-69
2022/06/07 08:17:23;;;;;;;36.17;34.70;;;23.00;86.90;;;;;;5074337;28;20561;-69
2022/06/07 08:19:50;;;;;;;33.50;32.30;;;23.00;86.00;;;;;;5074532;28;20439;-69
2022/06/07 08:22:17;;;;;;;34.30;33.00;;;23.00;85.90;;;;;;5074394;28;21013;-69
2022/06/07 08:24:44;;;;;;;35.33;34.03;;;23.00;86.00;;;;;;5074319;28;20500;-69
2022/06/07 08:27:11;;;;;;;33.80;32.40;;;23.00;85.90;;;;;;5074239;28;20946;-68
2022/06/07 08:29:40;;;;;;;34.37;32.97;;;23.00;85.80;;;;;;5074077;28;20522;-69
2022/06/07 08:32:07;;;;;;;34.53;33.23;;;23.00;85.80;;;;;;5074230;28;20907;-69
2022/06/07 08:37:37;;;;;;;34.03;32.63;;;23.00;85.70;;;;;;5074242;28;20450;-69
2022/06/07 08:40:08;;;;;;;33.30;32.10;;;23.00;85.70;;;;;;5073977;28;20992;-68
2022/06/07 08:42:37;;;;;;;33.20;32.00;;;23.00;85.70;;;;;;5073954;28;20467;-69
2022/06/07 08:45:07;;;;;;;32.90;31.80;;;23.00;85.60;;;;;;5073204;28;20435;-68
2022/06/07 08:47:38;;;;;;;34.33;33.13;;;23.00;85.70;;;;;;5073781;28;20506;-68
2022/06/07 08:50:14;;;;;;;32.80;31.60;;;23.00;85.60;;;;;;5073757;28;20478;-68
2022/06/07 08:52:41;;;;;;;33.90;32.60;;;23.00;85.60;;;;;;5073820;28;20884;-69
2022/06/07 08:55:16;;;;;;;34.20;32.90;;;23.00;85.50;;;;;;5073861;28;20439;-69
2022/06/07 08:57:46;;;;;;;35.83;34.53;;;23.00;85.40;;;;;;5073778;28;20549;-69
2022/06/07 09:00:19;;;;;;;35.43;34.23;;;23.00;85.30;;;;;;5073522;28;20474;-69
2022/06/07 09:03:20;;;;;;;34.90;33.60;;;23.00;85.20;;;;;;5073632;28;20456;-69
2022/06/07 09:05:52;;;;;;;34.07;32.87;;;23.00;85.20;;;;;;5073614;28;20463;-69
2022/06/07 09:08:19;;;;;;;36.07;34.80;;;23.00;85.10;;;;;;5073632;28;20439;-68
2022/06/07 09:13:35;;;;;;;34.97;33.67;;;23.00;85.10;;;;;;5073636;28;20529;-68
2022/06/07 09:16:04;;;;;;;35.30;34.10;;;23.00;85.00;;;;;;5100548;22;23118;-65
2022/06/07 09:18:33;;;;;;;36.13;34.83;;;23.00;85.00;;;;;;5097993;28;20857;-65
2022/06/07 09:21:07;;;;;;;34.90;33.70;;;23.00;84.90;;;;;;5113694;28;20449;-65
2022/06/07 09:23:39;;;;;;;36.20;34.60;;;23.00;84.80;;;;;;5113997;28;20950;-65
2022/06/07 09:26:20;;;;;;;34.23;32.90;;;23.00;84.80;;;;;;5113756;28;20496;-65
2022/06/07 09:28:48;;;;;;;34.07;32.87;;;23.00;84.70;;;;;;5113782;28;20448;-64
2022/06/07 09:31:21;;;;;;;33.40;32.20;;;23.00;84.70;;;;;;5113521;28;20484;-65
2022/06/07 09:33:52;;;;;;;34.73;33.43;;;23.00;84.60;;;;;;5113833;28;20469;-65
2022/06/07 09:36:22;;;;;;;33.20;32.10;;;23.00;84.60;;;;;;5113832;28;20500;-65
2022/06/07 09:38:55;;;;;;;35.37;34.17;;;23.00;85.30;;;;;;5113511;28;20529;-65
2022/06/07 09:41:38;;;;;;;34.03;32.90;;;23.10;84.60;;;;;;5113570;28;20445;-64
2022/06/07 09:44:14;;;;;;;33.37;32.17;;;23.00;84.40;;;;;;5113482;28;20796;-65
2022/06/07 09:46:44;;;;;;;34.30;33.00;;;23.00;84.30;;;;;;5113380;28;20920;-63
2022/06/07 09:49:26;;;;;;;35.47;34.27;;;23.00;84.40;;;;;;5113443;28;20852;-65
2022/06/07 09:51:53;;;;;;;35.33;34.13;;;23.00;84.30;;;;;;5113164;28;20513;-65
2022/06/07 09:54:22;;;;;;;35.43;34.20;;;23.10;85.20;;;;;;5113309;28;20525;-65
2022/06/07 09:57:03;;;;;;;35.07;33.87;;;23.10;84.40;;;;;;5113096;28;20486;-64
2022/06/07 09:59:48;;;;;;;35.63;34.33;;;23.10;84.30;;;;;;5113145;28;20533;-64
2022/06/07 10:02:42;;;;;;;35.00;33.80;;;23.10;84.30;;;;;;5113090;28;20524;-65
2022/06/07 10:05:17;;;;;;;34.70;33.50;;;23.10;84.30;;;;;;5113049;28;20441;-64
2022/06/07 10:07:54;;;;;;;35.57;34.27;;;23.10;84.30;;;;;;5112921;28;21054;-64
2022/06/07 10:10:26;;;;;;;32.57;31.37;;;23.10;84.30;;;;;;5112759;28;20469;-64
2022/06/07 10:13:04;;;;;;;34.47;33.27;;;23.10;85.00;;;;;;5112859;28;20485;-65
2022/06/07 10:15:40;;;;;;;33.00;31.80;;;23.10;84.20;;;;;;5113005;28;20441;-64
2022/06/07 10:18:17;;;;;;;34.20;33.03;;;23.10;84.10;;;;;;5112818;28;20473;-65
2022/06/07 10:21:01;;;;;;;36.00;34.80;;;23.10;84.10;;;;;;5112629;28;20966;-64
2022/06/07 10:23:42;;;;;;;34.07;32.87;;;23.10;84.10;;;;;;5112642;28;20520;-64
2022/06/07 10:26:21;;;;;;;34.30;33.10;;;23.10;84.20;;;;;;5112574;28;20540;-64
2022/06/07 10:29:04;;;;;;;32.60;31.50;;;23.10;84.10;;;;;;5112708;28;20469;-65
2022/06/07 10:31:42;;;;;;;35.43;34.23;;;23.10;84.10;;;;;;5112340;28;20561;-64
2022/06/07 10:34:15;;;;;;;34.97;33.77;;;23.10;84.00;;;;;;5112590;28;20440;-62
2022/06/07 10:36:56;;;;;;;32.97;31.87;;;23.10;84.00;;;;;;5112487;28;20526;-64
2022/06/07 10:39:34;;;;;;;33.13;32.03;;;23.20;84.00;;;;;;5112450;28;20528;-64
2022/06/07 10:42:13;;;;;;;33.83;32.60;;;23.10;83.90;;;;;;5112411;28;20525;-65
2022/06/07 10:44:47;;;;;;;34.47;33.17;;;23.20;83.90;;;;;;5112384;28;20536;-64
2022/06/07 10:47:20;;;;;;;34.10;32.80;;;23.20;83.80;;;;;;5112328;28;20548;-64
2022/06/07 10:49:53;;;;;;;35.20;33.90;;;23.20;83.70;;;;;;5112132;28;21027;-64
2022/06/07 10:52:34;;;;;;;33.90;32.70;;;23.20;84.30;;;;;;5112166;28;20565;-65
2022/06/07 10:55:10;;;;;;;34.20;33.00;;;23.20;83.50;;;;;;5112391;28;20441;-64
2022/06/07 10:57:43;;;;;;;35.50;34.20;;;23.30;83.50;;;;;;5112154;28;20821;-64
2022/06/07 11:00:22;;;;;;;33.67;32.47;;;23.20;83.30;;;;;;5111967;28;20541;-64
2022/06/07 11:03:00;;;;;;;33.47;32.27;;;23.20;83.30;;;;;;5112145;28;20520;-64
2022/06/07 11:11:11;;;;;;;34.23;32.97;;;23.30;83.20;;;;;;5111982;28;20432;-64
2022/06/07 11:13:46;;;;;;;32.53;31.43;;;23.30;83.20;;;;;;5112015;28;20568;-65
2022/06/07 11:16:19;;;;;;;34.80;33.60;;;23.20;83.00;;;;;;5111774;28;20857;-65
2022/06/07 11:18:46;;;;;;;35.03;33.83;;;23.30;83.20;;;;;;5112044;28;20433;-65
2022/06/07 11:21:26;;;;;;;35.00;33.80;;;23.30;83.10;;;;;;5111676;28;20499;-64
2022/06/07 11:24:07;;;;;;;34.47;33.27;;;23.30;83.80;;;;;;5111965;28;20532;-64
2022/06/07 11:26:59;;;;;;;34.10;32.90;;;23.30;83.00;;;;;;5111815;28;21014;-64
2022/06/07 11:29:28;;;;;;;35.60;34.40;;;23.30;82.90;;;;;;5111579;28;20451;-65
2022/06/07 11:31:55;;;;;;;31.40;30.30;;;23.30;82.80;;;;;;5111765;28;20857;-64
2022/06/07 11:34:25;;;;;;;29.40;28.40;;;23.30;82.80;;;;;;5111794;28;20495;-65
2022/06/07 11:36:57;;;;;;;29.40;28.30;;;23.30;82.80;;;;;;5111774;28;20493;-64
2022/06/07 11:39:31;;;;;;;29.30;28.30;;;23.30;82.80;;;;;;5111770;28;20448;-65
2022/06/07 11:42:19;;;;;;;29.87;28.77;;;23.30;82.70;;;;;;5111690;28;20999;-65
2022/06/07 11:45:17;;;;;;;29.33;28.33;;;23.30;83.50;;;;;;5111650;28;20789;-65
2022/06/07 11:48:05;;;;;;;30.13;29.03;;;23.30;82.80;;;;;;5111588;28;21040;-64
2022/06/07 11:50:39;;;;;;;28.00;27.00;;;23.30;82.70;;;;;;5094252;28;21103;-65
2022/06/07 11:53:26;;;;;;;27.60;26.67;;;23.30;82.60;;;;;;5111565;28;20480;-64
2022/06/07 11:56:01;;;;;;;27.43;26.53;;;23.30;82.70;;;;;;5111496;28;20445;-65
2022/06/07 11:58:51;;;;;;;27.50;26.40;;;23.30;82.70;;;;;;5111601;28;20531;-65
2022/06/07 12:01:31;;;;;;;28.17;27.17;;;23.30;82.70;;;;;;5111301;28;20469;-64
2022/06/07 12:04:22;;;;;;;28.83;27.83;;;23.30;82.70;;;;;;5111516;28;20947;-65
2022/06/07 12:06:51;;;;;;;28.23;27.23;;;23.30;83.40;;;;;;5110721;28;20545;-64
2022/06/07 12:09:20;;;;;;;28.97;27.97;;;23.30;83.50;;;;;;5111547;28;20446;-65
2022/06/07 12:11:47;;;;;;;28.93;27.93;;;23.30;82.70;;;;;;5111260;28;20445;-64
2022/06/07 12:14:26;;;;;;;27.67;26.70;;;23.30;82.70;;;;;;5111422;28;20520;-64
2022/06/07 12:16:57;;;;;;;27.93;26.93;;;23.40;83.60;;;;;;5111381;28;20835;-64
2022/06/07 12:19:28;;;;;;;27.50;26.50;;;23.40;82.80;;;;;;5112247;28;20531;-65
2022/06/07 12:21:59;;;;;;;27.93;26.93;;;23.40;82.90;;;;;;5115141;28;20940;-64
2022/06/07 12:24:29;;;;;;;29.20;28.10;;;23.40;83.20;;;;;;5115114;28;20467;-64
2022/06/07 12:26:56;;;;;;;27.73;26.73;;;23.40;82.80;;;;;;5114919;28;20496;-64
2022/06/07 12:29:25;;;;;;;27.30;26.37;;;23.40;82.90;;;;;;5114836;28;20480;-65
2022/06/07 12:31:56;;;;;;;28.20;27.20;;;23.40;82.90;;;;;;5114660;28;20527;-65
2022/06/07 12:34:26;;;;;;;28.30;27.30;;;23.40;82.90;;;;;;5114878;28;20484;-65
2022/06/07 12:36:55;;;;;;;28.80;27.80;;;23.40;82.90;;;;;;5114769;28;21010;-65
2022/06/07 12:39:22;;;;;;;28.80;27.80;;;23.40;82.90;;;;;;5114755;28;20955;-64
2022/06/07 12:41:53;;;;;;;29.37;28.30;;;23.40;82.90;;;;;;5114702;28;20450;-65
2022/06/07 12:44:28;;;;;;;27.50;26.50;;;23.40;82.80;;;;;;5114742;28;20452;-65
2022/06/07 12:46:56;;;;;;;27.07;26.17;;;23.40;82.80;;;;;;5114497;28;20544;-65
2022/06/07 12:49:25;;;;;;;27.10;26.20;;;23.40;82.70;;;;;;5114633;28;20982;-65
2022/06/07 12:51:58;;;;;;;27.30;26.40;;;23.40;83.40;;;;;;5114345;28;20536;-65
2022/06/07 12:54:28;;;;;;;29.37;28.33;;;23.40;82.60;;;;;;5114447;28;20488;-65
2022/06/07 12:56:59;;;;;;;29.40;28.40;;;23.40;82.60;;;;;;5114300;28;20523;-65
2022/06/07 12:59:33;;;;;;;29.10;28.00;;;23.40;83.30;;;;;;5114295;28;20801;-65
2022/06/07 13:02:01;;;;;;;26.90;26.00;;;23.40;83.30;;;;;;5114493;28;20781;-64
2022/06/07 13:04:35;;;;;;;27.37;26.47;;;23.40;82.60;;;;;;5114293;28;20456;-65
2022/06/07 13:07:14;;;;;;;27.00;26.10;;;23.40;82.60;;;;;;5114280;28;20553;-65